Currently 63°F in Beaumont, California, USA
63°F
84°F / 63°F
1 mph NW
0.00"
Sunday, September 23, 2018 10:17 PM PDT

Beaumont, California Weather Summary
Last 36 Hours

Temperature Winds Hourly Humidity Dewpoint
Time Report Norm Report Norm Max Gusts Precip. Rpt. Norm Rpt. Norm Pressure
1Sun 10:17 PM  62.8°F  68°F  1 mph NW  2 mph  3 mph  0.00"  67%  50%  51°F  48°F  29.72"
3Sun 10:14 PM  62.8°F  68°F  3 mph NW  2 mph  3 mph  ----  66%  50%  51°F  48°F  29.71"
Sun 10:00 PM  63.9°F  69°F  calm  2 mph  5 mph  0.00"  65%  49%  51°F  48°F  29.71"
Sun 09:00 PM  66.6°F  70°F  2 mph NW  2 mph  8 mph  0.00"  62%  47%  53°F  48°F  29.70"
Sun 08:00 PM  71.8°F  72°F  2 mph NW  3 mph  12 mph  0.00"  50%  45%  51°F  49°F  29.69"
Sun 07:00 PM  73.6°F  74°F  2 mph NW  3 mph  14 mph  0.00"  44%  41%  50°F  48°F  29.68"
Sun 06:00 PM  78.3°F  78°F  4 mph SW  3 mph  17 mph  0.00"  33%  35%  46°F  47°F  29.68"
Sun 05:00 PM  79.7°F  80°F  5 mph NW  4 mph  15 mph  0.00"  31%  32%  45°F  46°F  29.68"
Sun 04:00 PM  81.3°F  81°F  6 mph S  5 mph  14 mph  0.00"  28%  31%  44°F  46°F  29.69"
Sun 03:00 PM  81.7°F  81°F  8 mph W  4 mph  13 mph  0.00"  28%  30%  44°F  46°F  29.70"
2Sun 02:24 PM  83.7°F  81°F  5 mph SW  5 mph  12 mph  ----  28%  31%  46°F  46°F  29.72"
Sun 02:00 PM  83.1°F  80°F  7 mph NW  5 mph  14 mph  0.00"  29%  32%  46°F  47°F  29.73"
Sun 01:00 PM  81.9°F  79°F  2 mph N  6 mph  12 mph  0.00"  29%  33%  45°F  47°F  29.75"
Sun 12:00 PM  80.2°F  78°F  3 mph SW  5 mph  12 mph  0.00"  30%  36%  45°F  48°F  29.77"
Sun 11:00 AM  77.9°F  76°F  1 mph W  5 mph  12 mph  0.00"  31%  38%  44°F  48°F  29.78"
Sun 10:00 AM  75.0°F  74°F  3 mph SW  4 mph  9 mph  0.00"  32%  42%  42°F  49°F  29.79"
Sun 09:00 AM  75.4°F  72°F  3 mph SW  3 mph  10 mph  0.00"  31%  45%  42°F  49°F  29.76"
Sun 08:00 AM  72.0°F  70°F  calm  2 mph  10 mph  0.00"  41%  47%  46°F  48°F  29.76"
Sun 07:00 AM  68.4°F  67°F  3 mph NW  2 mph  7 mph  0.00"  38%  48%  41°F  46°F  29.75"
Sun 06:00 AM  67.5°F  66°F  calm  2 mph  5 mph  0.00"  40%  49%  41°F  46°F  29.73"
Sun 05:00 AM  67.8°F  66°F  3 mph NW  2 mph  3 mph  0.00"  39%  50%  41°F  46°F  29.73"
Sun 04:00 AM  66.7°F  66°F  calm  2 mph  3 mph  0.00"  38%  50%  39°F  47°F  29.73"
Sun 03:00 AM  70.9°F  66°F  calm  2 mph  7 mph  0.00"  35%  51%  41°F  47°F  29.72"
Sun 02:00 AM  69.6°F  66°F  1 mph E  2 mph  10 mph  0.00"  37%  52%  41°F  47°F  29.73"
Sun 01:00 AM  70.0°F  66°F  2 mph W  2 mph  8 mph  0.00"  39%  52%  43°F  48°F  29.75"
Sun 12:00 AM  69.6°F  67°F  1 mph W  2 mph  3 mph  0.00"  44%  52%  46°F  48°F  29.75"
Sat 11:00 PM  69.8°F  68°F  2 mph W  2 mph  5 mph  0.00"  44%  51%  46°F  48°F  29.76"
Sat 10:48 PM  69.6°F  68°F  2 mph W  2 mph  5 mph  0.00"  44%  51%  46°F  48°F  29.75"
Sat 09:00 PM  73.4°F  70°F  4 mph NW  2 mph  8 mph  0.00"  40%  48%  47°F  49°F  29.75"
Sat 08:00 PM  80.1°F  72°F  4 mph NW  3 mph  12 mph  0.00"  27%  46%  42°F  49°F  29.74"
Sat 07:00 PM  80.1°F  74°F  3 mph NW  3 mph  12 mph  0.00"  35%  42%  49°F  49°F  29.74"
Sat 06:00 PM  83.7°F  78°F  2 mph NW  4 mph  17 mph  0.00"  27%  37%  45°F  48°F  29.73"
Sat 05:00 PM  86.4°F  80°F  4 mph NW  4 mph  10 mph  0.00"  25%  33%  45°F  47°F  29.73"
Sat 04:00 PM  87.1°F  81°F  5 mph SE  5 mph  16 mph  0.00"  22%  32%  42°F  47°F  29.73"
Sat 03:00 PM  88.2°F  81°F  7 mph W  4 mph  17 mph  0.00"  22%  32%  43°F  47°F  29.75"
Sat 02:01 PM  87.1°F  80°F  6 mph NE  5 mph  13 mph  0.00"  23%  33%  44°F  48°F  29.77"
Sat 01:00 PM  87.3°F  79°F  4 mph S  5 mph  16 mph  0.00"  24%  35%  45°F  48°F  29.80"
Sat 12:00 PM  86.5°F  78°F  2 mph SW  5 mph  12 mph  0.00"  24%  37%  44°F  49°F  29.82"
Sat 11:00 AM  84.4°F  77°F  3 mph SW  5 mph  9 mph  0.00"  23%  39%  41°F  49°F  29.85"

  1. Current weather data. No green row appears if the current weather data is also the high or low for the current day.
  2. High temperature for the current day.
  3. Low temperature for the current day.

The Beaumont, California weather pages are a service of WeatherCurrents. Cherry Valley is located in northern Riverside County, California, a community of the northern part of Beaumont, along the Interstate 10 highway, in the San Gorgonio pass area, between the communities of Calimesa, Banning.
Copyright ©Sun Sep 23 22:36:18 PDT 2018  WeatherCurrents. All rights reserved. - Submit questions and comments - Privacy Policy

This page automatically refreshes every 10 minutes.